createdAt,value
2023-03-21T00:01:50.429Z,6.65
2023-03-21T00:04:17.811Z,6.60
2023-03-21T00:06:44.671Z,6.35
2023-03-21T00:09:12.378Z,6.29
2023-03-21T00:11:39.284Z,6.40
2023-03-21T00:14:08.713Z,6.42
2023-03-21T00:16:37.342Z,6.41
2023-03-21T00:19:07.607Z,6.46
2023-03-21T00:21:49.011Z,6.56
2023-03-21T00:24:19.038Z,6.56
2023-03-21T00:26:46.184Z,6.52
2023-03-21T00:29:13.004Z,6.52
2023-03-21T00:31:40.004Z,6.40
2023-03-21T00:34:06.826Z,6.41
2023-03-21T00:36:33.506Z,6.35
2023-03-21T00:39:01.014Z,6.38
2023-03-21T00:41:41.483Z,6.44
2023-03-21T00:44:11.846Z,6.40
2023-03-21T00:46:57.445Z,6.35
2023-03-21T00:49:25.343Z,6.31
2023-03-21T00:51:52.094Z,6.40
2023-03-21T00:54:19.867Z,6.46
2023-03-21T00:56:46.750Z,6.51
2023-03-21T00:59:13.395Z,6.55
2023-03-21T01:01:40.156Z,6.56
2023-03-21T01:04:10.933Z,6.50
2023-03-21T01:06:39.718Z,6.46
2023-03-21T01:09:19.501Z,6.50
2023-03-21T01:11:46.513Z,6.46
2023-03-21T01:14:22.633Z,6.53
2023-03-21T01:16:53.974Z,6.44
2023-03-21T01:19:29.072Z,6.11
2023-03-21T01:22:00.086Z,6.29
2023-03-21T01:24:26.919Z,6.34
2023-03-21T01:26:53.613Z,6.43
2023-03-21T01:29:20.552Z,6.50
2023-03-21T01:31:47.344Z,6.18
2023-03-21T01:34:14.098Z,6.30
2023-03-21T01:36:40.843Z,6.33
2023-03-21T01:39:07.563Z,6.18
2023-03-21T01:41:42.934Z,6.19
2023-03-21T01:44:15.945Z,6.20
2023-03-21T01:46:53.965Z,6.27
2023-03-21T01:49:41.056Z,6.15
2023-03-21T01:52:21.259Z,6.08
2023-03-21T01:54:56.204Z,6.16
2023-03-21T01:57:41.003Z,6.11
2023-03-21T02:00:13.025Z,6.07
2023-03-21T02:02:58.084Z,5.99
2023-03-21T02:05:56.840Z,5.84
2023-03-21T02:08:33.334Z,5.77
2023-03-21T02:11:05.636Z,5.74
2023-03-21T02:13:32.295Z,5.62
2023-03-21T02:16:10.428Z,5.50
2023-03-21T02:18:45.322Z,5.49
2023-03-21T02:21:43.607Z,5.44
2023-03-21T02:24:29.050Z,5.45
2023-03-21T02:27:03.574Z,5.36
2023-03-21T02:29:49.041Z,5.44
2023-03-21T02:32:36.667Z,5.42
2023-03-21T02:35:29.217Z,5.38
2023-03-21T02:38:13.558Z,5.36
2023-03-21T02:40:52.570Z,5.38
2023-03-21T02:43:42.972Z,5.37
2023-03-21T02:46:33.242Z,5.30
2023-03-21T02:49:14.498Z,5.18
2023-03-21T02:51:43.244Z,5.21
2023-03-21T02:54:32.265Z,5.20
2023-03-21T02:57:03.787Z,5.29
2023-03-21T02:59:32.750Z,5.35
2023-03-21T03:02:00.852Z,5.33
2023-03-21T03:04:28.825Z,5.31
2023-03-21T03:07:04.635Z,4.97
2023-03-21T03:09:38.817Z,5.06
2023-03-21T03:12:20.897Z,5.08
2023-03-21T03:15:18.032Z,5.09
2023-03-21T03:17:55.542Z,5.18
2023-03-21T03:21:09.155Z,5.14
2023-03-21T03:23:53.518Z,5.18
2023-03-21T03:26:27.132Z,5.13
2023-03-21T03:28:57.428Z,4.98
2023-03-21T03:31:30.630Z,4.75
2023-03-21T03:34:02.305Z,4.89
2023-03-21T03:36:35.971Z,4.93
2023-03-21T03:39:06.140Z,4.97
2023-03-21T03:42:03.012Z,4.71
2023-03-21T03:44:26.129Z,4.73
2023-03-21T03:47:06.742Z,4.79
2023-03-21T03:49:42.064Z,4.90
2023-03-21T03:52:17.684Z,4.95
2023-03-21T03:54:47.549Z,4.90
2023-03-21T03:57:16.126Z,4.90
2023-03-21T03:59:44.566Z,4.95
2023-03-21T04:02:11.674Z,5.02
2023-03-21T04:04:38.946Z,5.06
2023-03-21T04:07:06.505Z,5.15
2023-03-21T04:09:43.499Z,5.21
2023-03-21T04:12:12.924Z,5.09
2023-03-21T04:14:45.611Z,5.09
2023-03-21T04:17:13.803Z,5.07
2023-03-21T04:19:40.564Z,5.03
2023-03-21T04:22:07.384Z,4.97
2023-03-21T04:24:34.433Z,5.01
2023-03-21T04:27:01.314Z,4.89
2023-03-21T04:29:29.877Z,4.85
2023-03-21T04:31:56.791Z,4.88
2023-03-21T04:34:28.063Z,4.91
2023-03-21T04:36:55.974Z,5.00
2023-03-21T04:39:24.663Z,5.04
2023-03-21T04:41:51.468Z,5.03
2023-03-21T04:44:18.591Z,5.01
2023-03-21T04:46:45.340Z,5.09
2023-03-21T04:49:12.301Z,5.17
2023-03-21T04:51:39.250Z,5.25
2023-03-21T04:54:06.028Z,5.25
2023-03-21T04:56:34.135Z,5.34
2023-03-21T04:59:05.450Z,5.38
2023-03-21T05:01:32.354Z,5.39
2023-03-21T05:03:59.779Z,5.50
2023-03-21T05:06:27.944Z,5.55
2023-03-21T05:09:16.451Z,5.65
2023-03-21T05:11:43.535Z,5.78
2023-03-21T05:14:14.608Z,5.83
2023-03-21T05:16:53.645Z,5.86
2023-03-21T05:19:22.840Z,5.84
2023-03-21T05:21:50.605Z,5.95
2023-03-21T05:24:21.475Z,6.05
2023-03-21T05:26:52.289Z,6.15
2023-03-21T05:29:19.873Z,6.32
2023-03-21T05:31:46.699Z,6.30
2023-03-21T05:34:15.440Z,6.17
2023-03-21T05:36:42.240Z,6.30
2023-03-21T05:39:09.539Z,6.59
2023-03-21T05:41:36.435Z,6.67
2023-03-21T05:44:03.229Z,6.81
2023-03-21T05:46:30.033Z,7.04
2023-03-21T05:48:56.828Z,7.28
2023-03-21T05:51:23.612Z,7.50
2023-03-21T05:53:50.439Z,7.44
2023-03-21T05:56:17.171Z,7.38
2023-03-21T05:58:43.929Z,7.63
2023-03-21T06:01:10.909Z,7.86
2023-03-21T06:03:37.685Z,8.05
2023-03-21T06:06:04.975Z,8.06
2023-03-21T06:08:32.293Z,8.27
2023-03-21T06:10:58.961Z,8.48
2023-03-21T06:13:25.739Z,8.29
2023-03-21T06:15:53.198Z,8.00
2023-03-21T06:18:19.980Z,7.92
2023-03-21T06:20:46.716Z,8.46
2023-03-21T06:23:13.445Z,9.28
2023-03-21T06:25:40.502Z,10.07
2023-03-21T06:28:07.365Z,10.95
2023-03-21T06:30:36.244Z,11.70
2023-03-21T06:33:02.974Z,12.38
2023-03-21T06:35:29.761Z,12.33
2023-03-21T06:37:58.835Z,12.06
2023-03-21T06:40:25.626Z,11.93
2023-03-21T06:42:52.388Z,11.97
2023-03-21T06:45:19.958Z,12.61
2023-03-21T06:47:46.755Z,13.59
2023-03-21T06:50:13.481Z,13.56
2023-03-21T06:52:40.326Z,13.26
2023-03-21T06:55:07.404Z,12.88
2023-03-21T06:57:34.174Z,13.25
2023-03-21T07:00:00.918Z,13.44
2023-03-21T07:02:27.669Z,13.02
2023-03-21T07:04:55.349Z,13.24
2023-03-21T07:07:26.357Z,12.99
2023-03-21T07:09:53.034Z,13.17
2023-03-21T07:12:19.885Z,13.57
2023-03-21T07:14:46.602Z,13.64
2023-03-21T07:17:13.348Z,14.07
2023-03-21T07:19:40.074Z,13.87
2023-03-21T07:22:06.789Z,13.98
2023-03-21T07:24:33.459Z,13.88
2023-03-21T07:27:00.459Z,14.36
2023-03-21T07:29:27.162Z,15.80
2023-03-21T07:31:53.906Z,15.61
2023-03-21T07:34:20.877Z,15.92
2023-03-21T07:36:47.623Z,15.71
2023-03-21T07:39:14.371Z,15.65
2023-03-21T07:41:41.131Z,15.97
2023-03-21T07:44:07.823Z,15.95
2023-03-21T07:46:34.673Z,16.23
2023-03-21T07:49:01.484Z,16.10
2023-03-21T07:51:28.198Z,16.04
2023-03-21T07:53:55.269Z,17.20
2023-03-21T07:56:22.066Z,17.11
2023-03-21T07:58:48.760Z,16.81
2023-03-21T08:01:15.697Z,18.24
2023-03-21T08:03:43.567Z,18.45
2023-03-21T08:06:10.906Z,17.68
2023-03-21T08:08:37.745Z,16.54
2023-03-21T08:11:05.411Z,16.47
2023-03-21T08:13:33.795Z,16.79
2023-03-21T08:16:00.567Z,17.07
2023-03-21T08:18:27.306Z,18.30
2023-03-21T08:20:56.279Z,18.76
2023-03-21T08:23:24.792Z,17.42
2023-03-21T08:25:53.271Z,17.72
2023-03-21T08:28:21.132Z,17.17
2023-03-21T08:30:49.037Z,17.15
2023-03-21T08:33:17.412Z,17.16
2023-03-21T08:35:44.786Z,16.95
2023-03-21T08:38:12.250Z,16.66
2023-03-21T08:40:38.972Z,16.63
2023-03-21T08:43:06.221Z,17.03
2023-03-21T08:45:32.890Z,17.19
2023-03-21T08:47:59.724Z,17.42
2023-03-21T08:50:29.579Z,17.79
2023-03-21T08:52:56.342Z,17.55
2023-03-21T08:55:23.085Z,17.27
2023-03-21T08:57:49.917Z,17.60
2023-03-21T09:00:18.388Z,17.77
2023-03-21T09:02:47.080Z,17.24
2023-03-21T09:05:14.366Z,17.43
2023-03-21T09:07:41.714Z,17.10
2023-03-21T09:10:21.136Z,16.33
2023-03-21T09:12:51.263Z,16.67
2023-03-21T09:15:20.286Z,16.62
2023-03-21T09:17:50.186Z,16.44
2023-03-21T09:20:21.286Z,16.40
2023-03-21T09:22:50.213Z,16.32
2023-03-21T09:25:17.193Z,16.34
2023-03-21T09:27:45.984Z,16.62
2023-03-21T09:30:15.916Z,17.12
2023-03-21T09:32:43.196Z,18.06
2023-03-21T09:35:11.455Z,18.68
2023-03-21T09:37:42.299Z,18.65
2023-03-21T09:40:50.577Z,19.01
2023-03-21T09:43:42.208Z,19.55
2023-03-21T09:46:27.968Z,19.34
2023-03-21T09:49:01.477Z,19.15
2023-03-21T09:51:41.494Z,20.08
2023-03-21T09:54:17.855Z,21.15
2023-03-21T09:56:45.827Z,21.07
2023-03-21T09:59:38.196Z,21.87
2023-03-21T10:02:20.405Z,22.13
2023-03-21T10:04:47.156Z,21.54
2023-03-21T10:07:18.190Z,21.00
2023-03-21T10:09:47.284Z,21.32
2023-03-21T10:12:22.284Z,21.85
2023-03-21T10:14:58.161Z,21.53
2023-03-21T10:17:40.908Z,20.72
2023-03-21T10:20:14.347Z,20.63
2023-03-21T10:22:41.506Z,20.05
2023-03-21T10:25:12.444Z,19.75
2023-03-21T10:27:39.213Z,19.78
2023-03-21T10:30:08.094Z,19.39
2023-03-21T10:32:35.907Z,18.33
2023-03-21T10:35:05.029Z,18.48
2023-03-21T10:37:32.663Z,18.07
2023-03-21T10:39:59.643Z,17.79
2023-03-21T10:42:30.990Z,18.22
2023-03-21T10:44:57.888Z,18.37
2023-03-21T10:47:30.189Z,18.08
2023-03-21T10:50:08.177Z,18.39
2023-03-21T10:52:38.528Z,18.59
2023-03-21T10:55:28.829Z,19.09
2023-03-21T10:58:08.543Z,19.09
2023-03-21T11:00:39.008Z,19.25
2023-03-21T11:03:07.026Z,18.96
2023-03-21T11:05:42.041Z,18.56
2023-03-21T11:08:18.426Z,18.70
2023-03-21T11:11:05.813Z,18.89
2023-03-21T11:13:43.063Z,18.72
2023-03-21T11:16:36.491Z,18.82
2023-03-21T11:19:14.764Z,18.83
2023-03-21T11:21:41.686Z,18.60
2023-03-21T11:24:15.843Z,18.83
2023-03-21T11:26:45.158Z,19.24
2023-03-21T11:29:31.788Z,19.05
2023-03-21T11:32:02.562Z,19.19
2023-03-21T11:34:40.057Z,19.66
2023-03-21T11:37:24.034Z,19.84
2023-03-21T11:39:56.514Z,19.54
2023-03-21T11:42:31.600Z,19.03
2023-03-21T11:45:05.167Z,18.16
2023-03-21T11:47:31.932Z,18.32
2023-03-21T11:50:05.089Z,17.98
2023-03-21T11:52:41.315Z,17.69
2023-03-21T11:55:26.541Z,17.99
2023-03-21T11:58:15.962Z,17.30
2023-03-21T12:01:10.159Z,17.29
2023-03-21T12:03:53.075Z,17.26
2023-03-21T12:07:03.146Z,17.28
2023-03-21T12:09:43.802Z,16.80
2023-03-21T12:12:38.497Z,16.99
2023-03-21T12:15:20.894Z,16.79
2023-03-21T12:18:06.144Z,17.09
2023-03-21T12:20:52.936Z,17.31
2023-03-21T12:23:38.057Z,17.39
2023-03-21T12:26:27.957Z,17.53
2023-03-21T12:29:13.797Z,17.53
2023-03-21T12:32:05.234Z,17.62
2023-03-21T12:35:04.673Z,17.79
2023-03-21T12:37:37.200Z,17.97
2023-03-21T12:40:17.410Z,17.99
2023-03-21T12:43:01.967Z,17.78
2023-03-21T12:45:46.645Z,18.11
2023-03-21T12:48:40.655Z,17.88
2023-03-21T12:51:13.610Z,17.74
2023-03-21T12:54:13.528Z,17.74
2023-03-21T12:57:15.646Z,18.03
2023-03-21T12:59:53.132Z,17.91
2023-03-21T13:02:22.837Z,17.68
2023-03-21T13:05:07.744Z,17.89
2023-03-21T13:07:39.039Z,17.37
2023-03-21T13:10:24.290Z,17.11
2023-03-21T13:13:16.998Z,17.21
2023-03-21T13:15:52.788Z,17.11
2023-03-21T13:18:41.158Z,17.16
2023-03-21T13:21:17.677Z,16.66
2023-03-21T13:24:01.083Z,16.84
2023-03-21T13:26:41.181Z,16.76
2023-03-21T13:29:22.289Z,16.64
2023-03-21T13:31:52.382Z,16.45
2023-03-21T13:34:24.267Z,16.27
2023-03-21T13:36:52.617Z,16.28
2023-03-21T13:39:31.179Z,16.09
2023-03-21T13:42:05.739Z,16.21
2023-03-21T13:44:55.834Z,16.13
2023-03-21T13:47:57.637Z,15.91
2023-03-21T13:50:28.075Z,15.97
2023-03-21T13:53:18.427Z,15.86
2023-03-21T13:55:49.371Z,15.97
2023-03-21T13:58:38.419Z,15.96
2023-03-21T14:01:40.110Z,16.01
2023-03-21T14:04:17.602Z,15.93
2023-03-21T14:06:50.918Z,15.90
2023-03-21T14:09:24.491Z,15.72
2023-03-21T14:11:54.766Z,15.78
2023-03-21T14:14:26.973Z,15.76
2023-03-21T14:16:54.184Z,15.59
2023-03-21T14:19:28.559Z,15.59
2023-03-21T14:21:55.764Z,15.68
2023-03-21T14:24:22.616Z,15.51
2023-03-21T14:26:53.552Z,15.45
2023-03-21T14:29:31.650Z,15.32
2023-03-21T14:32:00.306Z,15.36
2023-03-21T14:34:31.371Z,15.40
2023-03-21T14:36:59.127Z,15.25
2023-03-21T14:39:32.375Z,14.99
2023-03-21T14:42:10.297Z,14.79
2023-03-21T14:44:56.503Z,14.78
2023-03-21T14:47:27.888Z,14.58
2023-03-21T14:49:55.816Z,14.55
2023-03-21T14:52:41.320Z,14.40
2023-03-21T14:55:16.643Z,14.63
2023-03-21T14:57:43.440Z,14.69
2023-03-21T15:00:25.537Z,14.52
2023-03-21T15:02:54.025Z,14.59
2023-03-21T15:05:25.075Z,14.60
2023-03-21T15:08:08.304Z,14.39
2023-03-21T15:10:35.295Z,14.46
2023-03-21T15:13:16.518Z,14.37
2023-03-21T15:15:44.089Z,14.40
2023-03-21T15:18:16.299Z,14.13
2023-03-21T15:20:46.454Z,14.08
2023-03-21T15:23:25.905Z,14.00
2023-03-21T15:25:53.092Z,13.66
2023-03-21T15:28:19.829Z,13.64
2023-03-21T15:30:51.659Z,13.71
2023-03-21T15:33:19.348Z,13.69
2023-03-21T15:35:56.135Z,13.61
2023-03-21T15:38:24.482Z,13.55
2023-03-21T15:40:51.404Z,13.51
2023-03-21T15:43:19.910Z,13.40
2023-03-21T15:45:48.380Z,13.27
2023-03-21T15:48:16.320Z,13.15
2023-03-21T15:50:57.672Z,13.14
2023-03-21T15:53:24.811Z,13.10
2023-03-21T15:55:57.073Z,13.05
2023-03-21T15:58:34.762Z,13.00
2023-03-21T16:01:06.651Z,12.89
2023-03-21T16:03:37.478Z,12.92
2023-03-21T16:06:25.827Z,12.83
2023-03-21T16:09:03.558Z,12.84
2023-03-21T16:11:44.429Z,12.87
2023-03-21T16:14:11.184Z,12.74
2023-03-21T16:16:38.410Z,12.70
2023-03-21T16:19:07.392Z,12.75
2023-03-21T16:21:35.472Z,12.63
2023-03-21T16:24:02.306Z,12.61
2023-03-21T16:26:32.209Z,12.56
2023-03-21T16:28:59.085Z,12.53
2023-03-21T16:31:30.535Z,12.38
2023-03-21T16:33:57.762Z,12.26
2023-03-21T16:36:25.677Z,12.21
2023-03-21T16:38:53.760Z,12.20
2023-03-21T16:41:22.214Z,12.23
2023-03-21T16:43:49.413Z,12.04
2023-03-21T16:46:20.499Z,11.95
2023-03-21T16:48:49.758Z,11.97
2023-03-21T16:51:30.372Z,11.81
2023-03-21T16:53:58.078Z,11.91
2023-03-21T16:56:27.890Z,11.88
2023-03-21T16:58:56.452Z,11.82
2023-03-21T17:01:31.024Z,11.80
2023-03-21T17:04:00.624Z,11.79
2023-03-21T17:06:29.955Z,11.85
2023-03-21T17:08:58.806Z,11.96
2023-03-21T17:11:27.497Z,12.00
2023-03-21T17:13:55.142Z,11.97
2023-03-21T17:16:27.049Z,11.82
2023-03-21T17:18:54.566Z,11.71
2023-03-21T17:21:23.707Z,11.66
2023-03-21T17:23:52.464Z,11.68
2023-03-21T17:26:27.695Z,11.71
2023-03-21T17:28:56.923Z,11.57
2023-03-21T17:31:25.663Z,11.53
2023-03-21T17:33:52.346Z,11.45
2023-03-21T17:36:28.385Z,11.45
2023-03-21T17:38:55.469Z,11.64
2023-03-21T17:41:22.853Z,11.62
2023-03-21T17:43:51.067Z,11.60
2023-03-21T17:46:22.422Z,11.60
2023-03-21T17:48:49.713Z,11.68
2023-03-21T17:51:17.172Z,11.50
2023-03-21T17:53:45.471Z,11.37
2023-03-21T17:56:19.759Z,11.54
2023-03-21T17:58:47.275Z,11.53
2023-03-21T18:01:14.592Z,11.53
2023-03-21T18:03:41.316Z,11.56
2023-03-21T18:06:14.815Z,11.59
2023-03-21T18:08:42.429Z,11.65
2023-03-21T18:11:10.267Z,11.70
2023-03-21T18:13:38.465Z,11.63
2023-03-21T18:16:06.130Z,11.62
2023-03-21T18:18:34.006Z,11.34
2023-03-21T18:21:01.278Z,11.45
2023-03-21T18:23:28.264Z,11.22
2023-03-21T18:25:55.114Z,10.97
2023-03-21T18:28:22.609Z,11.14
2023-03-21T18:33:40.570Z,11.07
2023-03-21T18:36:09.123Z,11.07
2023-03-21T18:38:36.529Z,11.10
2023-03-21T18:41:03.826Z,11.24
2023-03-21T18:46:17.693Z,11.25
2023-03-21T18:48:44.646Z,11.27
2023-03-21T18:51:11.606Z,11.25
2023-03-21T18:53:38.856Z,11.04
2023-03-21T18:56:09.903Z,10.88
2023-03-21T18:58:38.396Z,10.69
2023-03-21T19:01:05.523Z,10.74
2023-03-21T19:03:37.140Z,10.88
2023-03-21T19:06:05.673Z,10.88
2023-03-21T19:08:38.718Z,10.37
2023-03-21T19:11:06.932Z,10.49
2023-03-21T19:13:34.514Z,10.62
2023-03-21T19:16:02.798Z,10.74
2023-03-21T19:21:18.570Z,10.57
2023-03-21T19:24:20.896Z,10.32
2023-03-21T19:26:32.475Z,10.17
2023-03-21T19:28:59.296Z,10.06
2023-03-21T19:31:26.842Z,9.82
2023-03-21T19:33:53.631Z,9.77
2023-03-21T19:36:22.676Z,9.77
2023-03-21T19:38:50.576Z,10.04
2023-03-21T19:41:18.044Z,10.13
2023-03-21T19:43:53.753Z,10.24
2023-03-21T19:46:24.768Z,10.31
2023-03-21T19:48:56.287Z,10.35
2023-03-21T19:51:29.907Z,10.35
2023-03-21T19:54:01.337Z,10.39
2023-03-21T19:56:28.143Z,10.45
2023-03-21T19:58:56.202Z,10.24
2023-03-21T20:01:24.255Z,10.27
2023-03-21T20:03:51.859Z,9.97
2023-03-21T20:06:18.711Z,10.07
2023-03-21T20:11:33.133Z,9.90
2023-03-21T20:14:01.982Z,10.03
2023-03-21T20:16:34.737Z,9.94
2023-03-21T20:19:03.695Z,10.06
2023-03-21T20:21:41.156Z,10.12
2023-03-21T20:24:13.033Z,10.17
2023-03-21T20:26:39.856Z,10.18
2023-03-21T20:29:43.678Z,10.17
2023-03-21T20:31:53.613Z,10.09
2023-03-21T20:34:21.240Z,9.96
2023-03-21T20:36:48.378Z,9.64
2023-03-21T20:39:15.730Z,9.52
2023-03-21T20:41:42.608Z,9.57
2023-03-21T20:46:57.642Z,9.70
2023-03-21T20:49:24.969Z,9.59
2023-03-21T20:54:38.907Z,9.66
2023-03-21T20:57:06.112Z,9.73
2023-03-21T20:59:33.567Z,9.75
2023-03-21T21:02:01.191Z,9.68
2023-03-21T21:04:47.241Z,9.32
2023-03-21T21:07:17.840Z,9.44
2023-03-21T21:09:46.296Z,9.43
2023-03-21T21:12:15.070Z,9.50
2023-03-21T21:14:42.485Z,9.42
2023-03-21T21:17:28.333Z,9.48
2023-03-21T21:19:58.131Z,9.38
2023-03-21T21:22:24.927Z,8.83
2023-03-21T21:24:51.933Z,8.82
2023-03-21T21:27:19.906Z,8.96
2023-03-21T21:29:47.901Z,8.99
2023-03-21T21:32:17.025Z,8.91
2023-03-21T21:34:43.736Z,8.95
2023-03-21T21:37:10.765Z,8.82
2023-03-21T21:39:38.637Z,8.62
2023-03-21T21:42:05.562Z,8.23
2023-03-21T21:44:32.458Z,8.32
2023-03-21T21:46:59.655Z,8.48
2023-03-21T21:49:27.045Z,8.59
2023-03-21T21:51:53.780Z,8.62
2023-03-21T21:54:20.454Z,8.57
2023-03-21T21:56:54.221Z,8.24
2023-03-21T21:59:22.292Z,8.08
2023-03-21T22:01:51.511Z,8.19
2023-03-21T22:04:38.621Z,8.33
2023-03-21T22:07:06.210Z,8.30
2023-03-21T22:09:32.932Z,8.34
2023-03-21T22:11:59.673Z,8.12
2023-03-21T22:14:26.465Z,8.30
2023-03-21T22:16:53.131Z,8.21
2023-03-21T22:19:20.078Z,8.11
2023-03-21T22:21:46.922Z,8.10
2023-03-21T22:24:13.577Z,8.10
2023-03-21T22:26:40.455Z,8.07
2023-03-21T22:29:08.262Z,8.15
2023-03-21T22:31:35.134Z,8.16
2023-03-21T22:34:01.952Z,8.12
2023-03-21T22:36:28.720Z,8.08
2023-03-21T22:38:55.965Z,7.60
2023-03-21T22:41:22.612Z,7.50
2023-03-21T22:43:49.264Z,7.72
2023-03-21T22:46:16.283Z,7.78
2023-03-21T22:48:43.166Z,7.69
2023-03-21T22:51:10.605Z,7.76
2023-03-21T22:53:37.453Z,7.92
2023-03-21T22:56:04.325Z,8.01
2023-03-21T22:58:31.049Z,8.06
2023-03-21T23:01:02.165Z,8.13
2023-03-21T23:03:28.805Z,8.15
2023-03-21T23:06:00.333Z,8.27
2023-03-21T23:08:27.793Z,8.38
2023-03-21T23:10:54.453Z,8.43
2023-03-21T23:13:23.613Z,8.44
2023-03-21T23:15:50.873Z,8.10
2023-03-21T23:18:17.724Z,7.70
2023-03-21T23:20:44.508Z,7.94
2023-03-21T23:23:11.200Z,7.87
2023-03-21T23:25:39.536Z,7.72
2023-03-21T23:28:08.248Z,7.92
2023-03-21T23:30:38.241Z,8.01
2023-03-21T23:33:05.367Z,7.99
2023-03-21T23:35:35.799Z,8.02
2023-03-21T23:38:02.567Z,8.02
2023-03-21T23:40:29.277Z,7.95
2023-03-21T23:42:56.538Z,8.03
2023-03-21T23:45:23.381Z,8.06
2023-03-21T23:47:50.151Z,8.04
2023-03-21T23:50:21.779Z,7.82
2023-03-21T23:52:49.301Z,7.58
2023-03-21T23:55:16.098Z,7.77
2023-03-21T23:57:43.868Z,7.63
